sensor_id;sensor_type;location;lat;lon;timestamp;P1;durP1;ratioP1;P2;durP2;ratioP2
57025;SDS011;43961;52.940;6.834;2022-08-24T00:01:05;82.70;;;70.35;;
57025;SDS011;43961;52.940;6.834;2022-08-24T00:03:33;78.78;;;65.65;;
57025;SDS011;43961;52.940;6.834;2022-08-24T00:05:59;75.25;;;62.97;;
57025;SDS011;43961;52.940;6.834;2022-08-24T00:08:26;76.38;;;68.05;;
57025;SDS011;43961;52.940;6.834;2022-08-24T00:10:53;84.33;;;72.33;;
57025;SDS011;43961;52.940;6.834;2022-08-24T00:13:18;75.97;;;64.50;;
57025;SDS011;43961;52.940;6.834;2022-08-24T00:15:44;84.90;;;71.00;;
57025;SDS011;43961;52.940;6.834;2022-08-24T00:18:12;71.70;;;63.72;;
57025;SDS011;43961;52.940;6.834;2022-08-24T00:20:38;87.30;;;68.47;;
57025;SDS011;43961;52.940;6.834;2022-08-24T00:23:05;78.45;;;69.85;;
57025;SDS011;43961;52.940;6.834;2022-08-24T00:25:32;79.82;;;64.07;;
57025;SDS011;43961;52.940;6.834;2022-08-24T00:27:58;83.13;;;67.78;;
57025;SDS011;43961;52.940;6.834;2022-08-24T00:30:25;80.13;;;68.18;;
57025;SDS011;43961;52.940;6.834;2022-08-24T00:32:52;78.20;;;65.25;;
57025;SDS011;43961;52.940;6.834;2022-08-24T00:35:18;79.63;;;67.32;;
57025;SDS011;43961;52.940;6.834;2022-08-24T00:37:45;80.63;;;69.00;;
57025;SDS011;43961;52.940;6.834;2022-08-24T00:40:17;79.40;;;65.38;;
57025;SDS011;43961;52.940;6.834;2022-08-24T00:42:47;71.70;;;61.90;;
57025;SDS011;43961;52.940;6.834;2022-08-24T00:45:15;80.15;;;66.75;;
57025;SDS011;43961;52.940;6.834;2022-08-24T00:47:49;75.38;;;65.30;;
57025;SDS011;43961;52.940;6.834;2022-08-24T00:50:24;73.53;;;63.15;;
57025;SDS011;43961;52.940;6.834;2022-08-24T00:53:12;75.97;;;63.00;;
57025;SDS011;43961;52.940;6.834;2022-08-24T00:55:50;73.30;;;62.50;;
57025;SDS011;43961;52.940;6.834;2022-08-24T00:58:20;77.38;;;65.35;;
57025;SDS011;43961;52.940;6.834;2022-08-24T01:00:53;74.75;;;61.65;;
57025;SDS011;43961;52.940;6.834;2022-08-24T01:03:24;70.65;;;59.72;;
57025;SDS011;43961;52.940;6.834;2022-08-24T01:08:18;71.53;;;60.33;;
57025;SDS011;43961;52.940;6.834;2022-08-24T01:10:46;76.97;;;65.35;;
57025;SDS011;43961;52.940;6.834;2022-08-24T01:13:26;73.28;;;61.80;;
57025;SDS011;43961;52.940;6.834;2022-08-24T01:15:54;61.88;;;53.47;;
57025;SDS011;43961;52.940;6.834;2022-08-24T01:18:24;72.90;;;59.47;;
57025;SDS011;43961;52.940;6.834;2022-08-24T01:21:24;74.22;;;60.72;;
57025;SDS011;43961;52.940;6.834;2022-08-24T01:24:02;70.03;;;59.22;;
57025;SDS011;43961;52.940;6.834;2022-08-24T01:26:34;62.35;;;55.65;;
57025;SDS011;43961;52.940;6.834;2022-08-24T01:29:08;66.13;;;54.38;;
57025;SDS011;43961;52.940;6.834;2022-08-24T01:31:37;63.70;;;55.38;;
57025;SDS011;43961;52.940;6.834;2022-08-24T01:34:04;64.03;;;52.17;;
57025;SDS011;43961;52.940;6.834;2022-08-24T01:39:12;65.80;;;54.35;;
57025;SDS011;43961;52.940;6.834;2022-08-24T01:41:45;65.30;;;54.60;;
57025;SDS011;43961;52.940;6.834;2022-08-24T01:44:11;46.88;;;41.88;;
57025;SDS011;43961;52.940;6.834;2022-08-24T01:46:41;58.67;;;50.20;;
57025;SDS011;43961;52.940;6.834;2022-08-24T01:49:11;68.05;;;55.13;;
57025;SDS011;43961;52.940;6.834;2022-08-24T01:51:37;66.20;;;55.13;;
57025;SDS011;43961;52.940;6.834;2022-08-24T01:54:03;77.55;;;61.50;;
57025;SDS011;43961;52.940;6.834;2022-08-24T01:56:30;55.57;;;49.23;;
57025;SDS011;43961;52.940;6.834;2022-08-24T01:58:57;54.13;;;48.10;;
57025;SDS011;43961;52.940;6.834;2022-08-24T02:01:23;58.75;;;52.40;;
57025;SDS011;43961;52.940;6.834;2022-08-24T02:03:50;63.60;;;56.35;;
57025;SDS011;43961;52.940;6.834;2022-08-24T02:06:16;71.90;;;56.83;;
57025;SDS011;43961;52.940;6.834;2022-08-24T02:08:43;67.07;;;56.78;;
57025;SDS011;43961;52.940;6.834;2022-08-24T02:11:09;67.85;;;55.70;;
57025;SDS011;43961;52.940;6.834;2022-08-24T02:13:36;75.53;;;60.13;;
57025;SDS011;43961;52.940;6.834;2022-08-24T02:16:04;82.25;;;63.75;;
57025;SDS011;43961;52.940;6.834;2022-08-24T02:18:32;76.03;;;62.63;;
57025;SDS011;43961;52.940;6.834;2022-08-24T02:20:59;82.25;;;65.18;;
57025;SDS011;43961;52.940;6.834;2022-08-24T02:23:25;84.15;;;65.13;;
57025;SDS011;43961;52.940;6.834;2022-08-24T02:25:52;79.00;;;66.30;;
57025;SDS011;43961;52.940;6.834;2022-08-24T02:28:20;80.50;;;63.75;;
57025;SDS011;43961;52.940;6.834;2022-08-24T02:33:12;80.32;;;63.78;;
57025;SDS011;43961;52.940;6.834;2022-08-24T02:35:38;72.68;;;59.45;;
57025;SDS011;43961;52.940;6.834;2022-08-24T02:38:06;64.35;;;57.00;;
57025;SDS011;43961;52.940;6.834;2022-08-24T02:40:33;66.45;;;56.13;;
57025;SDS011;43961;52.940;6.834;2022-08-24T02:42:59;72.00;;;59.75;;
57025;SDS011;43961;52.940;6.834;2022-08-24T02:45:25;74.80;;;62.72;;
57025;SDS011;43961;52.940;6.834;2022-08-24T02:47:51;67.20;;;58.40;;
57025;SDS011;43961;52.940;6.834;2022-08-24T02:50:18;70.60;;;58.03;;
57025;SDS011;43961;52.940;6.834;2022-08-24T02:52:44;65.57;;;54.35;;
57025;SDS011;43961;52.940;6.834;2022-08-24T02:55:12;65.93;;;55.50;;
57025;SDS011;43961;52.940;6.834;2022-08-24T02:57:40;66.13;;;55.85;;
57025;SDS011;43961;52.940;6.834;2022-08-24T03:00:08;65.88;;;53.95;;
57025;SDS011;43961;52.940;6.834;2022-08-24T03:02:36;61.35;;;50.80;;
57025;SDS011;43961;52.940;6.834;2022-08-24T03:05:03;66.78;;;55.63;;
57025;SDS011;43961;52.940;6.834;2022-08-24T03:07:29;60.92;;;50.47;;
57025;SDS011;43961;52.940;6.834;2022-08-24T03:09:55;59.70;;;52.08;;
57025;SDS011;43961;52.940;6.834;2022-08-24T03:12:20;64.82;;;54.38;;
57025;SDS011;43961;52.940;6.834;2022-08-24T03:14:46;69.05;;;55.10;;
57025;SDS011;43961;52.940;6.834;2022-08-24T03:17:11;63.65;;;54.67;;
57025;SDS011;43961;52.940;6.834;2022-08-24T03:19:37;63.13;;;55.22;;
57025;SDS011;43961;52.940;6.834;2022-08-24T03:22:04;71.15;;;56.40;;
57025;SDS011;43961;52.940;6.834;2022-08-24T03:24:30;65.78;;;56.05;;
57025;SDS011;43961;52.940;6.834;2022-08-24T03:26:55;66.40;;;56.13;;
57025;SDS011;43961;52.940;6.834;2022-08-24T03:29:21;62.38;;;55.58;;
57025;SDS011;43961;52.940;6.834;2022-08-24T03:31:47;66.28;;;56.58;;
57025;SDS011;43961;52.940;6.834;2022-08-24T03:34:14;72.72;;;58.85;;
57025;SDS011;43961;52.940;6.834;2022-08-24T03:36:40;69.47;;;57.97;;
57025;SDS011;43961;52.940;6.834;2022-08-24T03:39:10;72.32;;;56.80;;
57025;SDS011;43961;52.940;6.834;2022-08-24T03:41:37;65.47;;;55.85;;
57025;SDS011;43961;52.940;6.834;2022-08-24T03:44:03;64.28;;;54.25;;
57025;SDS011;43961;52.940;6.834;2022-08-24T03:46:29;66.35;;;56.13;;
57025;SDS011;43961;52.940;6.834;2022-08-24T03:49:00;72.45;;;57.78;;
57025;SDS011;43961;52.940;6.834;2022-08-24T03:51:28;69.20;;;58.90;;
57025;SDS011;43961;52.940;6.834;2022-08-24T03:53:55;68.00;;;58.00;;
57025;SDS011;43961;52.940;6.834;2022-08-24T03:58:48;65.63;;;55.67;;
57025;SDS011;43961;52.940;6.834;2022-08-24T04:01:14;64.70;;;57.13;;
57025;SDS011;43961;52.940;6.834;2022-08-24T04:03:42;73.65;;;58.90;;
57025;SDS011;43961;52.940;6.834;2022-08-24T04:06:09;79.43;;;62.95;;
57025;SDS011;43961;52.940;6.834;2022-08-24T04:08:36;72.00;;;59.17;;
57025;SDS011;43961;52.940;6.834;2022-08-24T04:11:02;63.97;;;50.67;;
57025;SDS011;43961;52.940;6.834;2022-08-24T04:13:28;53.15;;;47.42;;
57025;SDS011;43961;52.940;6.834;2022-08-24T04:16:02;60.45;;;52.17;;
57025;SDS011;43961;52.940;6.834;2022-08-24T04:18:32;60.88;;;52.95;;
57025;SDS011;43961;52.940;6.834;2022-08-24T04:20:59;61.13;;;52.13;;
57025;SDS011;43961;52.940;6.834;2022-08-24T04:23:26;45.60;;;40.90;;
57025;SDS011;43961;52.940;6.834;2022-08-24T04:25:52;44.47;;;40.05;;
57025;SDS011;43961;52.940;6.834;2022-08-24T04:28:18;52.22;;;42.72;;
57025;SDS011;43961;52.940;6.834;2022-08-24T04:30:47;53.28;;;47.78;;
57025;SDS011;43961;52.940;6.834;2022-08-24T04:33:14;68.20;;;51.40;;
57025;SDS011;43961;52.940;6.834;2022-08-24T04:35:42;90.60;;;51.35;;
57025;SDS011;43961;52.940;6.834;2022-08-24T04:38:10;61.50;;;49.90;;
57025;SDS011;43961;52.940;6.834;2022-08-24T04:40:39;56.58;;;46.53;;
57025;SDS011;43961;52.940;6.834;2022-08-24T04:43:06;54.25;;;44.53;;
57025;SDS011;43961;52.940;6.834;2022-08-24T04:45:32;46.05;;;40.53;;
57025;SDS011;43961;52.940;6.834;2022-08-24T04:48:02;46.75;;;41.75;;
57025;SDS011;43961;52.940;6.834;2022-08-24T04:50:28;48.20;;;42.38;;
57025;SDS011;43961;52.940;6.834;2022-08-24T04:52:53;49.83;;;42.95;;
57025;SDS011;43961;52.940;6.834;2022-08-24T04:55:19;47.25;;;41.70;;
57025;SDS011;43961;52.940;6.834;2022-08-24T04:57:45;47.53;;;37.78;;
57025;SDS011;43961;52.940;6.834;2022-08-24T05:00:10;43.13;;;38.55;;
57025;SDS011;43961;52.940;6.834;2022-08-24T05:02:36;43.45;;;39.03;;
57025;SDS011;43961;52.940;6.834;2022-08-24T05:05:05;47.33;;;42.20;;
57025;SDS011;43961;52.940;6.834;2022-08-24T05:07:32;51.47;;;44.15;;
57025;SDS011;43961;52.940;6.834;2022-08-24T05:09:57;48.63;;;43.33;;
57025;SDS011;43961;52.940;6.834;2022-08-24T05:12:23;54.58;;;45.40;;
57025;SDS011;43961;52.940;6.834;2022-08-24T05:14:49;51.45;;;45.85;;
57025;SDS011;43961;52.940;6.834;2022-08-24T05:17:14;53.83;;;46.80;;
57025;SDS011;43961;52.940;6.834;2022-08-24T05:19:40;53.90;;;46.38;;
57025;SDS011;43961;52.940;6.834;2022-08-24T05:22:05;67.70;;;51.05;;
57025;SDS011;43961;52.940;6.834;2022-08-24T05:24:32;67.55;;;50.78;;
57025;SDS011;43961;52.940;6.834;2022-08-24T05:26:57;62.78;;;50.53;;
57025;SDS011;43961;52.940;6.834;2022-08-24T05:29:24;50.00;;;41.92;;
57025;SDS011;43961;52.940;6.834;2022-08-24T05:31:50;43.13;;;36.00;;
57025;SDS011;43961;52.940;6.834;2022-08-24T05:34:17;39.28;;;35.03;;
57025;SDS011;43961;52.940;6.834;2022-08-24T05:36:43;45.40;;;40.50;;
57025;SDS011;43961;52.940;6.834;2022-08-24T05:39:10;55.33;;;45.72;;
57025;SDS011;43961;52.940;6.834;2022-08-24T05:41:38;54.65;;;45.60;;
57025;SDS011;43961;52.940;6.834;2022-08-24T05:46:31;62.40;;;53.88;;
57025;SDS011;43961;52.940;6.834;2022-08-24T05:48:57;62.13;;;51.90;;
57025;SDS011;43961;52.940;6.834;2022-08-24T05:51:24;56.65;;;48.10;;
57025;SDS011;43961;52.940;6.834;2022-08-24T05:53:50;67.28;;;51.88;;
57025;SDS011;43961;52.940;6.834;2022-08-24T05:56:16;65.13;;;55.45;;
57025;SDS011;43961;52.940;6.834;2022-08-24T05:58:43;67.55;;;56.42;;
57025;SDS011;43961;52.940;6.834;2022-08-24T06:01:10;68.30;;;56.53;;
57025;SDS011;43961;52.940;6.834;2022-08-24T06:03:41;71.43;;;58.78;;
57025;SDS011;43961;52.940;6.834;2022-08-24T06:06:07;72.05;;;57.55;;
57025;SDS011;43961;52.940;6.834;2022-08-24T06:08:37;76.85;;;62.22;;
57025;SDS011;43961;52.940;6.834;2022-08-24T06:11:04;66.68;;;56.92;;
57025;SDS011;43961;52.940;6.834;2022-08-24T06:13:30;67.28;;;56.80;;
57025;SDS011;43961;52.940;6.834;2022-08-24T06:16:02;68.32;;;56.05;;
57025;SDS011;43961;52.940;6.834;2022-08-24T06:18:28;64.22;;;54.58;;
57025;SDS011;43961;52.940;6.834;2022-08-24T06:20:54;67.50;;;53.92;;
57025;SDS011;43961;52.940;6.834;2022-08-24T06:23:19;68.00;;;57.72;;
57025;SDS011;43961;52.940;6.834;2022-08-24T06:25:45;66.70;;;58.00;;
57025;SDS011;43961;52.940;6.834;2022-08-24T06:28:30;76.75;;;63.85;;
57025;SDS011;43961;52.940;6.834;2022-08-24T06:31:01;91.40;;;73.20;;
57025;SDS011;43961;52.940;6.834;2022-08-24T06:33:31;90.50;;;70.35;;
57025;SDS011;43961;52.940;6.834;2022-08-24T06:35:57;97.45;;;74.65;;
57025;SDS011;43961;52.940;6.834;2022-08-24T06:38:23;95.55;;;76.95;;
57025;SDS011;43961;52.940;6.834;2022-08-24T06:40:48;86.90;;;71.85;;
57025;SDS011;43961;52.940;6.834;2022-08-24T06:43:14;90.32;;;74.13;;
57025;SDS011;43961;52.940;6.834;2022-08-24T06:45:40;95.32;;;78.00;;
57025;SDS011;43961;52.940;6.834;2022-08-24T06:48:06;92.32;;;75.40;;
57025;SDS011;43961;52.940;6.834;2022-08-24T06:50:33;117.57;;;82.60;;
57025;SDS011;43961;52.940;6.834;2022-08-24T06:52:59;103.00;;;82.07;;
57025;SDS011;43961;52.940;6.834;2022-08-24T06:55:25;116.25;;;89.10;;
57025;SDS011;43961;52.940;6.834;2022-08-24T06:57:53;134.32;;;91.78;;
57025;SDS011;43961;52.940;6.834;2022-08-24T07:00:19;107.55;;;88.43;;
57025;SDS011;43961;52.940;6.834;2022-08-24T07:02:46;106.75;;;79.80;;
57025;SDS011;43961;52.940;6.834;2022-08-24T07:05:12;100.70;;;79.22;;
57025;SDS011;43961;52.940;6.834;2022-08-24T07:07:38;102.38;;;79.45;;
57025;SDS011;43961;52.940;6.834;2022-08-24T07:10:04;97.63;;;77.22;;
57025;SDS011;43961;52.940;6.834;2022-08-24T07:12:32;84.07;;;69.07;;
57025;SDS011;43961;52.940;6.834;2022-08-24T07:14:58;89.35;;;68.70;;
57025;SDS011;43961;52.940;6.834;2022-08-24T07:17:24;86.30;;;67.72;;
57025;SDS011;43961;52.940;6.834;2022-08-24T07:19:50;78.32;;;63.00;;
57025;SDS011;43961;52.940;6.834;2022-08-24T07:22:15;71.72;;;60.22;;
57025;SDS011;43961;52.940;6.834;2022-08-24T07:24:41;74.15;;;64.10;;
57025;SDS011;43961;52.940;6.834;2022-08-24T07:27:06;66.13;;;56.38;;
57025;SDS011;43961;52.940;6.834;2022-08-24T07:29:32;65.88;;;55.67;;
57025;SDS011;43961;52.940;6.834;2022-08-24T07:31:58;54.88;;;48.67;;
57025;SDS011;43961;52.940;6.834;2022-08-24T07:34:24;57.25;;;45.83;;
57025;SDS011;43961;52.940;6.834;2022-08-24T07:36:49;59.17;;;41.58;;
57025;SDS011;43961;52.940;6.834;2022-08-24T07:39:17;47.00;;;39.25;;
57025;SDS011;43961;52.940;6.834;2022-08-24T07:41:43;41.63;;;30.67;;
57025;SDS011;43961;52.940;6.834;2022-08-24T07:44:10;39.47;;;28.13;;
57025;SDS011;43961;52.940;6.834;2022-08-24T07:46:37;46.05;;;41.13;;
57025;SDS011;43961;52.940;6.834;2022-08-24T07:51:32;31.88;;;26.55;;
57025;SDS011;43961;52.940;6.834;2022-08-24T07:53:58;28.17;;;25.58;;
57025;SDS011;43961;52.940;6.834;2022-08-24T07:56:26;32.22;;;29.08;;
57025;SDS011;43961;52.940;6.834;2022-08-24T07:58:53;28.40;;;25.42;;
57025;SDS011;43961;52.940;6.834;2022-08-24T08:01:19;34.38;;;26.15;;
57025;SDS011;43961;52.940;6.834;2022-08-24T08:03:46;27.02;;;24.27;;
57025;SDS011;43961;52.940;6.834;2022-08-24T08:06:12;20.50;;;18.45;;
57025;SDS011;43961;52.940;6.834;2022-08-24T08:08:39;23.70;;;21.38;;
57025;SDS011;43961;52.940;6.834;2022-08-24T08:13:32;27.90;;;22.58;;
57025;SDS011;43961;52.940;6.834;2022-08-24T08:16:00;29.30;;;22.60;;
57025;SDS011;43961;52.940;6.834;2022-08-24T08:18:26;24.50;;;22.05;;
57025;SDS011;43961;52.940;6.834;2022-08-24T08:20:52;22.98;;;20.67;;
57025;SDS011;43961;52.940;6.834;2022-08-24T08:23:18;26.60;;;19.75;;
57025;SDS011;43961;52.940;6.834;2022-08-24T08:26:03;23.17;;;20.80;;
57025;SDS011;43961;52.940;6.834;2022-08-24T08:31:00;25.55;;;21.98;;
57025;SDS011;43961;52.940;6.834;2022-08-24T08:33:28;27.95;;;21.30;;
57025;SDS011;43961;52.940;6.834;2022-08-24T08:35:59;31.02;;;27.33;;
57025;SDS011;43961;52.940;6.834;2022-08-24T08:38:32;25.52;;;22.52;;
57025;SDS011;43961;52.940;6.834;2022-08-24T08:43:44;26.67;;;23.98;;
57025;SDS011;43961;52.940;6.834;2022-08-24T08:51:57;25.55;;;22.75;;
57025;SDS011;43961;52.940;6.834;2022-08-24T08:54:51;30.95;;;25.42;;
57025;SDS011;43961;52.940;6.834;2022-08-24T08:57:45;26.80;;;23.55;;
57025;SDS011;43961;52.940;6.834;2022-08-24T09:00:24;24.00;;;17.63;;
57025;SDS011;43961;52.940;6.834;2022-08-24T09:08:23;27.20;;;24.25;;
57025;SDS011;43961;52.940;6.834;2022-08-24T09:16:32;22.73;;;20.40;;
57025;SDS011;43961;52.940;6.834;2022-08-24T09:21:48;25.75;;;23.02;;
57025;SDS011;43961;52.940;6.834;2022-08-24T09:27:16;19.30;;;17.25;;
57025;SDS011;43961;52.940;6.834;2022-08-24T09:32:57;31.70;;;18.35;;
57025;SDS011;43961;52.940;6.834;2022-08-24T09:38:26;22.63;;;20.27;;
57025;SDS011;43961;52.940;6.834;2022-08-24T09:44:04;24.30;;;16.10;;
57025;SDS011;43961;52.940;6.834;2022-08-24T09:54:46;18.55;;;16.38;;
57025;SDS011;43961;52.940;6.834;2022-08-24T09:57:37;24.83;;;16.00;;
57025;SDS011;43961;52.940;6.834;2022-08-24T10:00:28;20.85;;;18.75;;
57025;SDS011;43961;52.940;6.834;2022-08-24T10:22:16;21.05;;;17.25;;
57025;SDS011;43961;52.940;6.834;2022-08-24T10:25:21;19.00;;;16.90;;
57025;SDS011;43961;52.940;6.834;2022-08-24T10:33:24;24.23;;;17.42;;
57025;SDS011;43961;52.940;6.834;2022-08-24T10:45:16;16.17;;;13.65;;
57025;SDS011;43961;52.940;6.834;2022-08-24T10:48:03;18.33;;;15.65;;
57025;SDS011;43961;52.940;6.834;2022-08-24T10:53:30;16.60;;;15.10;;
57025;SDS011;43961;52.940;6.834;2022-08-24T10:58:37;15.07;;;13.73;;
57025;SDS011;43961;52.940;6.834;2022-08-24T11:04:09;17.95;;;14.73;;
57025;SDS011;43961;52.940;6.834;2022-08-24T11:06:40;14.13;;;12.63;;
57025;SDS011;43961;52.940;6.834;2022-08-24T11:09:16;22.65;;;11.90;;
57025;SDS011;43961;52.940;6.834;2022-08-24T11:11:43;18.00;;;14.20;;
57025;SDS011;43961;52.940;6.834;2022-08-24T11:16:40;13.45;;;11.55;;
57025;SDS011;43961;52.940;6.834;2022-08-24T11:19:13;13.85;;;12.43;;
57025;SDS011;43961;52.940;6.834;2022-08-24T11:21:55;16.25;;;11.70;;
57025;SDS011;43961;52.940;6.834;2022-08-24T11:26:53;13.25;;;11.95;;
57025;SDS011;43961;52.940;6.834;2022-08-24T11:29:29;13.02;;;11.80;;
57025;SDS011;43961;52.940;6.834;2022-08-24T11:34:51;11.70;;;10.60;;
57025;SDS011;43961;52.940;6.834;2022-08-24T11:37:21;15.70;;;10.80;;
57025;SDS011;43961;52.940;6.834;2022-08-24T11:39:47;11.57;;;9.75;;
57025;SDS011;43961;52.940;6.834;2022-08-24T11:42:31;12.15;;;10.60;;
57025;SDS011;43961;52.940;6.834;2022-08-24T11:50:47;12.90;;;11.70;;
57025;SDS011;43961;52.940;6.834;2022-08-24T12:02:04;13.10;;;8.55;;
57025;SDS011;43961;52.940;6.834;2022-08-24T12:12:26;13.88;;;10.27;;
57025;SDS011;43961;52.940;6.834;2022-08-24T12:14:58;8.90;;;8.00;;
57025;SDS011;43961;52.940;6.834;2022-08-24T12:20:36;7.65;;;6.70;;
57025;SDS011;43961;52.940;6.834;2022-08-24T12:23:04;8.40;;;7.55;;
57025;SDS011;43961;52.940;6.834;2022-08-24T12:25:35;14.30;;;7.25;;
57025;SDS011;43961;52.940;6.834;2022-08-24T12:28:22;9.65;;;8.25;;
57025;SDS011;43961;52.940;6.834;2022-08-24T12:30:52;7.75;;;7.22;;
57025;SDS011;43961;52.940;6.834;2022-08-24T12:33:24;10.32;;;8.55;;
57025;SDS011;43961;52.940;6.834;2022-08-24T12:35:56;13.77;;;8.90;;
57025;SDS011;43961;52.940;6.834;2022-08-24T12:38:27;16.02;;;8.40;;
57025;SDS011;43961;52.940;6.834;2022-08-24T12:41:13;12.57;;;7.80;;
57025;SDS011;43961;52.940;6.834;2022-08-24T12:46:36;8.05;;;7.35;;
57025;SDS011;43961;52.940;6.834;2022-08-24T12:51:52;8.88;;;8.05;;
57025;SDS011;43961;52.940;6.834;2022-08-24T12:55:26;7.78;;;7.00;;
57025;SDS011;43961;52.940;6.834;2022-08-24T13:00:39;6.85;;;6.32;;
57025;SDS011;43961;52.940;6.834;2022-08-24T13:03:21;8.60;;;6.50;;
57025;SDS011;43961;52.940;6.834;2022-08-24T13:05:59;7.50;;;6.90;;
57025;SDS011;43961;52.940;6.834;2022-08-24T13:08:39;10.30;;;6.97;;
57025;SDS011;43961;52.940;6.834;2022-08-24T13:13:46;7.50;;;6.80;;
57025;SDS011;43961;52.940;6.834;2022-08-24T13:16:44;9.55;;;7.90;;
57025;SDS011;43961;52.940;6.834;2022-08-24T13:24:40;7.63;;;6.97;;
57025;SDS011;43961;52.940;6.834;2022-08-24T13:29:36;7.03;;;6.40;;
57025;SDS011;43961;52.940;6.834;2022-08-24T13:32:19;11.23;;;6.82;;
57025;SDS011;43961;52.940;6.834;2022-08-24T13:34:53;9.52;;;7.47;;
57025;SDS011;43961;52.940;6.834;2022-08-24T13:37:22;14.15;;;7.35;;
57025;SDS011;43961;52.940;6.834;2022-08-24T13:58:51;14.38;;;6.55;;
57025;SDS011;43961;52.940;6.834;2022-08-24T14:01:41;6.88;;;5.45;;
57025;SDS011;43961;52.940;6.834;2022-08-24T14:07:24;7.85;;;6.13;;
57025;SDS011;43961;52.940;6.834;2022-08-24T14:10:21;6.07;;;5.63;;
57025;SDS011;43961;52.940;6.834;2022-08-24T14:16:00;7.07;;;6.38;;
57025;SDS011;43961;52.940;6.834;2022-08-24T14:19:49;5.95;;;5.50;;
57025;SDS011;43961;52.940;6.834;2022-08-24T14:22:29;5.68;;;5.28;;
57025;SDS011;43961;52.940;6.834;2022-08-24T14:25:23;9.50;;;6.28;;
57025;SDS011;43961;52.940;6.834;2022-08-24T14:41:00;6.65;;;6.05;;
57025;SDS011;43961;52.940;6.834;2022-08-24T14:46:43;5.53;;;5.13;;
57025;SDS011;43961;52.940;6.834;2022-08-24T14:55:18;5.55;;;5.13;;
57025;SDS011;43961;52.940;6.834;2022-08-24T15:00:24;5.40;;;5.00;;
57025;SDS011;43961;52.940;6.834;2022-08-24T15:03:14;6.68;;;6.10;;
57025;SDS011;43961;52.940;6.834;2022-08-24T15:06:05;6.68;;;6.03;;
57025;SDS011;43961;52.940;6.834;2022-08-24T15:08:52;5.88;;;5.20;;
57025;SDS011;43961;52.940;6.834;2022-08-24T15:11:30;5.55;;;5.15;;
57025;SDS011;43961;52.940;6.834;2022-08-24T15:14:00;6.97;;;5.47;;
57025;SDS011;43961;52.940;6.834;2022-08-24T15:16:33;5.15;;;4.80;;
57025;SDS011;43961;52.940;6.834;2022-08-24T15:19:14;7.20;;;4.78;;
57025;SDS011;43961;52.940;6.834;2022-08-24T15:21:57;7.13;;;5.93;;
57025;SDS011;43961;52.940;6.834;2022-08-24T15:27:23;5.50;;;5.03;;
57025;SDS011;43961;52.940;6.834;2022-08-24T15:32:23;6.20;;;5.72;;
57025;SDS011;43961;52.940;6.834;2022-08-24T15:34:52;7.03;;;4.97;;
57025;SDS011;43961;52.940;6.834;2022-08-24T15:40:02;8.60;;;5.22;;
57025;SDS011;43961;52.940;6.834;2022-08-24T15:42:39;6.30;;;5.32;;
57025;SDS011;43961;52.940;6.834;2022-08-24T15:45:05;8.90;;;6.03;;
57025;SDS011;43961;52.940;6.834;2022-08-24T15:47:33;6.05;;;5.57;;
57025;SDS011;43961;52.940;6.834;2022-08-24T16:00:47;7.25;;;6.50;;
57025;SDS011;43961;52.940;6.834;2022-08-24T16:06:16;6.65;;;5.97;;
57025;SDS011;43961;52.940;6.834;2022-08-24T16:08:52;5.78;;;5.10;;
57025;SDS011;43961;52.940;6.834;2022-08-24T16:11:20;7.68;;;5.50;;
57025;SDS011;43961;52.940;6.834;2022-08-24T16:13:53;7.05;;;5.72;;
57025;SDS011;43961;52.940;6.834;2022-08-24T16:16:19;7.32;;;5.43;;
57025;SDS011;43961;52.940;6.834;2022-08-24T16:19:02;4.95;;;4.55;;
57025;SDS011;43961;52.940;6.834;2022-08-24T16:24:40;5.45;;;5.03;;
57025;SDS011;43961;52.940;6.834;2022-08-24T16:27:03;5.72;;;4.38;;
57025;SDS011;43961;52.940;6.834;2022-08-24T16:32:14;5.25;;;4.82;;
57025;SDS011;43961;52.940;6.834;2022-08-24T16:34:53;7.32;;;6.63;;
57025;SDS011;43961;52.940;6.834;2022-08-24T16:37:19;6.07;;;5.60;;
57025;SDS011;43961;52.940;6.834;2022-08-24T16:42:20;6.87;;;6.03;;
57025;SDS011;43961;52.940;6.834;2022-08-24T16:44:51;6.05;;;5.57;;
57025;SDS011;43961;52.940;6.834;2022-08-24T16:47:17;5.50;;;5.10;;
57025;SDS011;43961;52.940;6.834;2022-08-24T16:49:44;5.80;;;5.38;;
57025;SDS011;43961;52.940;6.834;2022-08-24T16:52:10;5.55;;;5.05;;
57025;SDS011;43961;52.940;6.834;2022-08-24T16:54:36;6.38;;;5.80;;
57025;SDS011;43961;52.940;6.834;2022-08-24T16:57:13;5.68;;;5.25;;
57025;SDS011;43961;52.940;6.834;2022-08-24T16:59:43;5.50;;;5.10;;
57025;SDS011;43961;52.940;6.834;2022-08-24T17:02:11;5.93;;;5.40;;
57025;SDS011;43961;52.940;6.834;2022-08-24T17:04:37;4.70;;;4.22;;
57025;SDS011;43961;52.940;6.834;2022-08-24T17:07:03;7.60;;;5.38;;
57025;SDS011;43961;52.940;6.834;2022-08-24T17:09:37;5.00;;;4.60;;
57025;SDS011;43961;52.940;6.834;2022-08-24T17:12:05;5.65;;;5.05;;
57025;SDS011;43961;52.940;6.834;2022-08-24T17:14:31;5.10;;;4.60;;
57025;SDS011;43961;52.940;6.834;2022-08-24T17:16:57;5.88;;;4.80;;
57025;SDS011;43961;52.940;6.834;2022-08-24T17:19:23;5.60;;;5.20;;
57025;SDS011;43961;52.940;6.834;2022-08-24T17:21:52;5.13;;;4.72;;
57025;SDS011;43961;52.940;6.834;2022-08-24T17:24:19;6.50;;;5.50;;
57025;SDS011;43961;52.940;6.834;2022-08-24T17:26:46;5.28;;;4.95;;
57025;SDS011;43961;52.940;6.834;2022-08-24T17:29:15;5.03;;;4.63;;
57025;SDS011;43961;52.940;6.834;2022-08-24T17:31:43;8.23;;;4.68;;
57025;SDS011;43961;52.940;6.834;2022-08-24T17:34:10;6.07;;;5.47;;
57025;SDS011;43961;52.940;6.834;2022-08-24T17:36:36;5.00;;;4.60;;
57025;SDS011;43961;52.940;6.834;2022-08-24T17:39:03;8.23;;;5.75;;
57025;SDS011;43961;52.940;6.834;2022-08-24T17:41:31;13.80;;;5.30;;
57025;SDS011;43961;52.940;6.834;2022-08-24T17:43:57;9.70;;;5.00;;
57025;SDS011;43961;52.940;6.834;2022-08-24T17:46:23;6.55;;;5.93;;
57025;SDS011;43961;52.940;6.834;2022-08-24T17:48:48;6.07;;;5.57;;
57025;SDS011;43961;52.940;6.834;2022-08-24T17:51:14;8.00;;;4.57;;
57025;SDS011;43961;52.940;6.834;2022-08-24T17:53:41;6.03;;;5.53;;
57025;SDS011;43961;52.940;6.834;2022-08-24T17:56:07;6.35;;;5.35;;
57025;SDS011;43961;52.940;6.834;2022-08-24T17:58:34;6.57;;;6.00;;
57025;SDS011;43961;52.940;6.834;2022-08-24T18:01:20;8.02;;;6.40;;
57025;SDS011;43961;52.940;6.834;2022-08-24T18:03:46;6.15;;;5.72;;
57025;SDS011;43961;52.940;6.834;2022-08-24T18:06:13;9.35;;;6.20;;
57025;SDS011;43961;52.940;6.834;2022-08-24T18:08:38;6.78;;;6.18;;
57025;SDS011;43961;52.940;6.834;2022-08-24T18:11:04;10.07;;;6.03;;
57025;SDS011;43961;52.940;6.834;2022-08-24T18:13:30;7.07;;;6.40;;
57025;SDS011;43961;52.940;6.834;2022-08-24T18:15:55;8.30;;;7.38;;
57025;SDS011;43961;52.940;6.834;2022-08-24T18:18:21;14.68;;;7.55;;
57025;SDS011;43961;52.940;6.834;2022-08-24T18:20:47;8.75;;;8.02;;
57025;SDS011;43961;52.940;6.834;2022-08-24T18:23:15;16.25;;;8.32;;
57025;SDS011;43961;52.940;6.834;2022-08-24T18:25:45;13.75;;;8.45;;
57025;SDS011;43961;52.940;6.834;2022-08-24T18:28:13;19.08;;;10.38;;
57025;SDS011;43961;52.940;6.834;2022-08-24T18:30:41;24.48;;;12.70;;
57025;SDS011;43961;52.940;6.834;2022-08-24T18:33:08;15.80;;;8.98;;
57025;SDS011;43961;52.940;6.834;2022-08-24T18:35:33;16.92;;;7.43;;
57025;SDS011;43961;52.940;6.834;2022-08-24T18:37:59;7.82;;;6.22;;
57025;SDS011;43961;52.940;6.834;2022-08-24T18:40:25;8.73;;;5.95;;
57025;SDS011;43961;52.940;6.834;2022-08-24T18:42:52;7.28;;;6.20;;